createdAt,value
2019-03-24T00:03:07.343Z,5.60
2019-03-24T00:05:55.164Z,5.60
2019-03-24T00:08:38.008Z,5.60
2019-03-24T00:11:24.512Z,5.50
2019-03-24T00:14:07.378Z,5.50
2019-03-24T00:16:51.332Z,5.50
2019-03-24T00:19:34.158Z,5.50
2019-03-24T00:25:16.710Z,5.40
2019-03-24T00:30:47.679Z,5.30
2019-03-24T00:33:32.406Z,5.30
2019-03-24T00:41:54.224Z,5.20
2019-03-24T00:47:22.983Z,5.10
2019-03-24T00:53:16.383Z,5.00
2019-03-24T00:56:00.095Z,4.90
2019-03-24T00:58:41.862Z,4.90
2019-03-24T01:01:26.287Z,4.90
2019-03-24T01:04:09.240Z,4.90
2019-03-24T01:06:55.627Z,4.90
2019-03-24T01:09:37.358Z,4.90
2019-03-24T01:12:25.373Z,4.90
2019-03-24T01:15:07.757Z,4.80
2019-03-24T01:17:54.141Z,4.80
2019-03-24T01:20:37.559Z,4.80
2019-03-24T01:23:24.879Z,4.80
2019-03-24T01:25:57.705Z,4.70
2019-03-24T01:28:48.756Z,4.70
2019-03-24T01:31:34.159Z,4.60
2019-03-24T01:34:25.989Z,4.60
2019-03-24T01:37:08.915Z,4.60
2019-03-24T01:39:56.223Z,4.50
2019-03-24T01:42:29.002Z,4.50
2019-03-24T01:45:19.941Z,4.50
2019-03-24T01:48:04.331Z,4.50
2019-03-24T01:50:50.260Z,4.40
2019-03-24T01:53:35.390Z,4.40
2019-03-24T01:56:22.233Z,4.40
2019-03-24T01:59:05.548Z,4.30
2019-03-24T02:01:51.995Z,4.30
2019-03-24T02:04:35.533Z,4.30
2019-03-24T02:07:20.353Z,4.30
2019-03-24T02:12:57.517Z,4.20
2019-03-24T02:15:42.665Z,4.20
2019-03-24T02:18:24.371Z,4.20
2019-03-24T02:21:10.916Z,4.30
2019-03-24T02:23:54.304Z,4.40
2019-03-24T02:26:55.181Z,4.50
2019-03-24T02:29:30.685Z,4.50
2019-03-24T02:34:59.260Z,4.30
2019-03-24T02:38:16.722Z,4.30
2019-03-24T02:40:30.565Z,4.30
2019-03-24T02:43:14.594Z,4.20
2019-03-24T02:45:47.600Z,4.20
2019-03-24T02:48:40.476Z,4.20
2019-03-24T02:51:22.767Z,4.20
2019-03-24T02:54:08.660Z,4.20
2019-03-24T02:56:54.262Z,4.20
2019-03-24T02:59:39.511Z,4.20
2019-03-24T03:05:21.225Z,4.20
2019-03-24T03:08:04.071Z,4.10
2019-03-24T03:10:48.739Z,4.10
2019-03-24T03:13:31.752Z,4.00
2019-03-24T03:16:14.299Z,4.00
2019-03-24T03:18:57.972Z,3.90
2019-03-24T03:21:41.794Z,3.80
2019-03-24T03:24:25.709Z,3.80
2019-03-24T03:27:08.869Z,3.80
2019-03-24T03:29:56.246Z,3.80
2019-03-24T03:32:38.733Z,3.70
2019-03-24T03:35:23.285Z,3.70
2019-03-24T03:38:07.142Z,3.70
2019-03-24T03:40:53.074Z,3.70
2019-03-24T03:43:35.688Z,3.70
2019-03-24T03:46:20.086Z,3.60
2019-03-24T03:49:02.792Z,3.60
2019-03-24T03:51:48.281Z,3.60
2019-03-24T03:57:13.656Z,3.60
2019-03-24T04:00:03.580Z,3.50
2019-03-24T04:02:47.501Z,3.50
2019-03-24T04:05:31.639Z,3.50
2019-03-24T04:08:17.619Z,3.50
2019-03-24T04:10:59.915Z,3.50
2019-03-24T04:13:42.675Z,3.60
2019-03-24T04:19:05.304Z,3.80
2019-03-24T04:21:48.945Z,3.70
2019-03-24T04:24:31.599Z,3.70
2019-03-24T04:29:59.885Z,3.60
2019-03-24T04:32:50.665Z,3.60
2019-03-24T04:35:41.750Z,3.50
2019-03-24T04:41:08.620Z,3.40
2019-03-24T04:43:56.710Z,3.40
2019-03-24T04:46:40.222Z,3.40
2019-03-24T04:49:31.167Z,3.40
2019-03-24T04:52:15.052Z,3.40
2019-03-24T04:54:59.323Z,3.40
2019-03-24T04:57:44.615Z,3.30
2019-03-24T05:03:16.277Z,3.20
2019-03-24T05:06:01.468Z,3.20
2019-03-24T05:08:43.251Z,3.20
2019-03-24T05:11:30.125Z,3.10
2019-03-24T05:14:14.421Z,3.20
2019-03-24T05:17:02.141Z,3.10
2019-03-24T05:19:45.442Z,3.10
2019-03-24T05:22:28.661Z,3.10
2019-03-24T05:25:00.766Z,3.10
2019-03-24T05:27:51.226Z,3.10
2019-03-24T05:30:37.047Z,3.10
2019-03-24T05:33:22.234Z,3.10
2019-03-24T05:36:05.413Z,3.10
2019-03-24T05:38:48.681Z,3.10
2019-03-24T05:41:30.123Z,3.10
2019-03-24T05:47:11.106Z,3.10
2019-03-24T05:52:40.063Z,3.20
2019-03-24T05:55:24.254Z,3.20
2019-03-24T05:58:12.849Z,3.20
2019-03-24T06:04:11.043Z,3.30
2019-03-24T06:09:06.309Z,3.40
2019-03-24T06:14:34.982Z,3.40
2019-03-24T06:17:22.578Z,3.50
2019-03-24T06:20:07.080Z,3.50
2019-03-24T06:25:45.218Z,3.60
2019-03-24T06:28:28.880Z,3.70
2019-03-24T06:31:14.256Z,3.80
2019-03-24T06:33:57.215Z,3.80
2019-03-24T06:36:39.628Z,3.90
2019-03-24T06:39:24.680Z,4.00
2019-03-24T06:42:06.374Z,4.00
2019-03-24T06:44:49.820Z,4.10
2019-03-24T06:47:31.985Z,4.20
2019-03-24T06:50:16.083Z,4.30
2019-03-24T06:52:57.484Z,4.40
2019-03-24T06:55:41.531Z,4.60
2019-03-24T06:58:23.498Z,4.70
2019-03-24T07:01:06.447Z,4.70
2019-03-24T07:03:49.142Z,4.80
2019-03-24T07:06:21.734Z,4.90
2019-03-24T07:09:11.748Z,5.00
2019-03-24T07:14:39.098Z,5.20
2019-03-24T07:17:21.932Z,5.20
2019-03-24T07:20:04.921Z,5.30
2019-03-24T07:22:50.631Z,5.40
2019-03-24T07:25:34.698Z,5.50
2019-03-24T07:28:18.575Z,5.60
2019-03-24T07:31:02.514Z,5.70
2019-03-24T07:33:49.059Z,5.80
2019-03-24T07:36:36.176Z,5.90
2019-03-24T07:39:19.648Z,6.00
2019-03-24T07:42:02.008Z,6.10
2019-03-24T07:44:48.459Z,6.20
2019-03-24T07:50:24.375Z,6.40
2019-03-24T07:53:07.528Z,6.60
2019-03-24T07:55:48.901Z,6.70
2019-03-24T07:58:33.405Z,6.80
2019-03-24T08:01:17.896Z,7.00
2019-03-24T08:04:00.620Z,7.10
2019-03-24T08:06:43.096Z,7.20
2019-03-24T08:09:26.593Z,7.40
2019-03-24T08:12:08.904Z,7.50
2019-03-24T08:14:53.635Z,7.60
2019-03-24T08:17:35.783Z,7.80
2019-03-24T08:20:20.412Z,7.90
2019-03-24T08:23:12.145Z,8.00
2019-03-24T08:28:41.273Z,8.20
2019-03-24T08:34:11.207Z,8.50
2019-03-24T08:36:55.978Z,8.60
2019-03-24T08:42:32.698Z,8.80
2019-03-24T08:45:16.834Z,8.90
2019-03-24T08:50:54.954Z,9.10
2019-03-24T08:56:49.877Z,9.30
2019-03-24T09:02:23.563Z,9.60
2019-03-24T09:05:13.349Z,9.70
2019-03-24T09:08:01.356Z,9.80
2019-03-24T09:10:49.284Z,10.00
2019-03-24T09:13:33.481Z,10.00
2019-03-24T09:16:20.771Z,10.20
2019-03-24T09:19:02.436Z,10.30
2019-03-24T09:24:29.777Z,10.50
2019-03-24T09:27:05.645Z,10.70
2019-03-24T09:29:55.786Z,10.80
2019-03-24T09:35:23.071Z,11.00
2019-03-24T09:38:07.035Z,11.10
2019-03-24T09:40:50.134Z,11.20
2019-03-24T09:43:36.635Z,11.40
2019-03-24T09:49:08.589Z,11.60
2019-03-24T09:51:41.035Z,11.70
2019-03-24T10:00:20.033Z,12.30
2019-03-24T10:03:10.232Z,12.50
2019-03-24T10:05:53.702Z,12.70
2019-03-24T10:08:47.070Z,12.90
2019-03-24T10:11:28.712Z,13.00
2019-03-24T10:14:12.737Z,13.10
2019-03-24T10:16:55.770Z,13.20
2019-03-24T10:19:28.935Z,13.40
2019-03-24T10:22:21.658Z,13.60
2019-03-24T10:24:56.355Z,13.70
2019-03-24T10:27:38.441Z,13.90
2019-03-24T10:30:12.230Z,13.90
2019-03-24T10:35:51.556Z,14.30
2019-03-24T10:41:46.293Z,14.60
2019-03-24T10:47:18.950Z,14.80
2019-03-24T10:49:51.642Z,14.90
2019-03-24T10:55:32.558Z,15.20
2019-03-24T10:58:05.283Z,15.30
2019-03-24T11:00:40.852Z,15.40
2019-03-24T11:03:21.926Z,15.50
2019-03-24T11:05:53.713Z,15.60
2019-03-24T11:08:29.030Z,15.70
2019-03-24T11:11:00.413Z,15.80
2019-03-24T11:13:50.931Z,15.90
2019-03-24T11:16:23.252Z,16.00
2019-03-24T11:18:57.001Z,16.20
2019-03-24T11:21:33.989Z,16.30
2019-03-24T11:24:07.802Z,16.30
2019-03-24T11:26:47.162Z,16.40
2019-03-24T11:29:37.773Z,16.50
2019-03-24T11:32:19.436Z,16.60
2019-03-24T11:38:12.243Z,16.70
2019-03-24T11:41:01.347Z,16.90
2019-03-24T11:43:32.793Z,17.00
2019-03-24T11:46:04.463Z,17.10
2019-03-24T11:49:16.304Z,17.30
2019-03-24T11:58:05.947Z,17.60
2019-03-24T12:00:50.973Z,17.70
2019-03-24T12:09:21.020Z,17.80
2019-03-24T12:12:02.843Z,18.00
2019-03-24T12:14:46.416Z,18.10
2019-03-24T12:17:28.988Z,18.10
2019-03-24T12:20:22.193Z,18.20
2019-03-24T12:23:29.027Z,18.30
2019-03-24T12:26:02.645Z,18.30
2019-03-24T12:28:46.624Z,18.50
2019-03-24T12:31:41.541Z,18.50
2019-03-24T12:34:37.928Z,18.60
2019-03-24T12:37:28.272Z,18.50
2019-03-24T12:39:59.264Z,18.60
2019-03-24T12:45:22.257Z,18.80
2019-03-24T12:48:18.853Z,18.90
2019-03-24T12:50:49.953Z,18.90
2019-03-24T12:53:23.223Z,18.90
2019-03-24T12:55:55.705Z,19.00
2019-03-24T12:58:28.671Z,19.10
2019-03-24T13:01:00.024Z,19.20
2019-03-24T13:03:44.123Z,19.30
2019-03-24T13:06:16.041Z,19.30
2019-03-24T13:08:51.139Z,19.40
2019-03-24T13:11:22.849Z,19.40
2019-03-24T13:13:57.107Z,19.60
2019-03-24T13:16:28.464Z,19.60
2019-03-24T13:19:02.764Z,19.70
2019-03-24T13:21:35.549Z,19.80
2019-03-24T13:24:07.711Z,19.80
2019-03-24T13:26:58.248Z,19.90
2019-03-24T13:29:32.731Z,19.80
2019-03-24T13:32:21.845Z,19.80
2019-03-24T13:34:53.542Z,19.70
2019-03-24T13:37:30.432Z,19.70
2019-03-24T13:40:05.985Z,19.70
2019-03-24T13:42:40.312Z,19.70
2019-03-24T13:45:14.111Z,19.70
2019-03-24T13:47:46.251Z,19.70
2019-03-24T13:50:18.509Z,19.70
2019-03-24T13:52:58.011Z,19.70
2019-03-24T13:55:28.931Z,19.60
2019-03-24T13:58:14.351Z,19.70
2019-03-24T14:00:49.714Z,19.80
2019-03-24T14:03:22.007Z,19.80
2019-03-24T14:05:56.698Z,19.90
2019-03-24T14:08:36.763Z,19.90
2019-03-24T14:11:10.310Z,20.00
2019-03-24T14:13:55.661Z,20.00
2019-03-24T14:16:27.330Z,20.00
2019-03-24T14:19:08.958Z,20.00
2019-03-24T14:21:42.942Z,20.00
2019-03-24T14:24:14.946Z,20.00
2019-03-24T14:26:47.374Z,20.00
2019-03-24T14:29:19.508Z,20.10
2019-03-24T14:31:52.780Z,20.10
2019-03-24T14:34:24.531Z,20.20
2019-03-24T14:40:13.259Z,20.20
2019-03-24T14:42:58.987Z,20.30
2019-03-24T14:45:41.982Z,20.40
2019-03-24T14:48:25.731Z,20.50
2019-03-24T14:51:10.796Z,20.60
2019-03-24T14:53:53.625Z,20.70
2019-03-24T14:56:47.886Z,20.80
2019-03-24T14:59:21.046Z,20.90
2019-03-24T15:02:15.701Z,21.10
2019-03-24T15:05:09.126Z,21.10
2019-03-24T15:07:41.864Z,21.20
2019-03-24T15:10:14.579Z,21.30
2019-03-24T15:12:58.721Z,21.40
2019-03-24T15:15:34.958Z,21.60
2019-03-24T15:18:07.558Z,21.60
2019-03-24T15:20:39.046Z,21.60
2019-03-24T15:23:14.598Z,21.70
2019-03-24T15:25:47.369Z,21.70
2019-03-24T15:28:21.418Z,21.80
2019-03-24T15:30:52.732Z,21.90
2019-03-24T15:33:24.046Z,21.90
2019-03-24T15:35:57.277Z,22.00
2019-03-24T15:38:29.004Z,22.00
2019-03-24T15:41:00.575Z,22.10
2019-03-24T15:43:32.536Z,22.00
2019-03-24T15:46:05.447Z,21.90
2019-03-24T15:48:37.853Z,21.80
2019-03-24T15:51:16.852Z,21.70
2019-03-24T15:53:43.288Z,21.60
2019-03-24T15:56:16.145Z,21.50
2019-03-24T15:58:48.591Z,21.30
2019-03-24T16:01:20.992Z,21.20
2019-03-24T16:03:53.935Z,21.10
2019-03-24T16:06:26.429Z,20.90
2019-03-24T16:08:57.909Z,20.80
2019-03-24T16:11:31.145Z,20.60
2019-03-24T16:14:02.356Z,20.60
2019-03-24T16:16:35.021Z,20.50
2019-03-24T16:19:06.865Z,20.30
2019-03-24T16:21:38.215Z,20.20
2019-03-24T16:24:09.692Z,20.20
2019-03-24T16:26:41.841Z,20.20
2019-03-24T16:29:13.309Z,20.00
2019-03-24T16:31:45.760Z,20.00
2019-03-24T16:34:17.750Z,19.90
2019-03-24T16:36:48.973Z,19.80
2019-03-24T16:39:20.529Z,19.80
2019-03-24T16:41:52.378Z,19.80
2019-03-24T16:44:24.535Z,19.60
2019-03-24T16:46:56.545Z,19.60
2019-03-24T16:49:27.654Z,19.50
2019-03-24T16:52:01.019Z,19.40
2019-03-24T16:54:31.999Z,19.40
2019-03-24T16:57:04.884Z,19.40
2019-03-24T16:59:36.758Z,19.40
2019-03-24T17:02:08.520Z,19.30
2019-03-24T17:04:40.567Z,19.30
2019-03-24T17:07:13.132Z,19.10
2019-03-24T17:09:44.012Z,19.00
2019-03-24T17:12:19.863Z,19.00
2019-03-24T17:15:09.957Z,19.00
2019-03-24T17:17:41.250Z,18.90
2019-03-24T17:20:32.908Z,18.80
2019-03-24T17:23:05.417Z,18.70
2019-03-24T17:25:55.728Z,18.60
2019-03-24T17:28:28.654Z,18.50
2019-03-24T17:31:00.365Z,18.40
2019-03-24T17:33:34.004Z,18.30
2019-03-24T17:36:06.178Z,18.20
2019-03-24T17:38:56.275Z,18.00
2019-03-24T17:47:16.625Z,17.40
2019-03-24T17:50:02.605Z,17.30
2019-03-24T17:52:44.729Z,17.20
2019-03-24T17:55:30.981Z,17.10
2019-03-24T17:58:12.692Z,17.00
2019-03-24T18:00:59.323Z,17.00
2019-03-24T18:03:30.725Z,16.80
2019-03-24T18:06:01.983Z,16.70
2019-03-24T18:08:33.349Z,16.70
2019-03-24T18:11:23.918Z,16.60
2019-03-24T18:13:57.122Z,16.50
2019-03-24T18:16:47.922Z,16.40
2019-03-24T18:22:11.599Z,16.30
2019-03-24T18:25:00.602Z,16.30
2019-03-24T18:27:43.095Z,16.20
2019-03-24T18:33:08.568Z,16.00
2019-03-24T18:35:41.276Z,15.90
2019-03-24T18:38:31.181Z,15.80
2019-03-24T18:41:03.347Z,15.70
2019-03-24T18:43:53.249Z,15.50
2019-03-24T18:46:42.942Z,15.30
2019-03-24T18:49:24.488Z,15.20
2019-03-24T18:52:07.906Z,15.10
2019-03-24T18:54:49.698Z,15.10
2019-03-24T18:57:33.332Z,15.00
2019-03-24T19:00:20.828Z,14.90
2019-03-24T19:03:04.294Z,14.90
2019-03-24T19:05:36.116Z,14.70
2019-03-24T19:08:26.258Z,14.70
2019-03-24T19:10:59.178Z,14.70
2019-03-24T19:16:44.813Z,14.60
2019-03-24T19:19:18.038Z,14.60
2019-03-24T19:21:50.238Z,14.50
2019-03-24T19:24:40.873Z,14.40
2019-03-24T19:27:31.671Z,14.30
2019-03-24T19:30:04.319Z,14.20
2019-03-24T19:32:37.070Z,14.10
2019-03-24T19:35:31.451Z,14.00
2019-03-24T19:38:13.894Z,13.90
2019-03-24T19:46:56.432Z,13.70
2019-03-24T19:49:40.272Z,13.70
2019-03-24T19:52:25.993Z,13.70
2019-03-24T19:55:10.225Z,13.60
2019-03-24T19:57:59.719Z,13.40
2019-03-24T20:00:37.181Z,13.40
2019-03-24T20:03:21.176Z,13.40
2019-03-24T20:06:03.545Z,13.30
2019-03-24T20:08:50.953Z,13.10
2019-03-24T20:11:32.994Z,13.00
2019-03-24T20:14:18.749Z,12.90
2019-03-24T20:17:01.357Z,12.70
2019-03-24T20:19:44.771Z,12.70
2019-03-24T20:22:27.485Z,12.60
2019-03-24T20:28:02.885Z,12.40
2019-03-24T20:33:40.497Z,12.20
2019-03-24T20:36:25.916Z,12.20
2019-03-24T20:39:08.673Z,12.10
2019-03-24T20:41:52.892Z,12.10
2019-03-24T20:44:27.262Z,12.00
2019-03-24T20:46:58.673Z,11.90
2019-03-24T20:53:18.387Z,11.70
2019-03-24T20:58:44.036Z,11.50
2019-03-24T21:01:27.144Z,11.40
2019-03-24T21:04:09.189Z,11.30
2019-03-24T21:06:54.419Z,11.20
2019-03-24T21:09:36.376Z,11.10
2019-03-24T21:12:08.663Z,11.00
2019-03-24T21:14:59.584Z,10.90
2019-03-24T21:20:26.815Z,10.70
2019-03-24T21:23:31.761Z,10.50
2019-03-24T21:26:01.668Z,10.50
2019-03-24T21:28:47.107Z,10.50
2019-03-24T21:31:31.202Z,10.50
2019-03-24T21:34:14.872Z,10.40
2019-03-24T21:36:47.089Z,10.30
2019-03-24T21:39:37.941Z,10.20
2019-03-24T21:42:20.936Z,10.10
2019-03-24T21:44:53.107Z,10.00
2019-03-24T21:47:44.718Z,9.90
2019-03-24T21:50:19.226Z,9.80
2019-03-24T21:53:09.587Z,9.80
2019-03-24T21:58:44.843Z,9.60
2019-03-24T22:04:15.973Z,9.40
2019-03-24T22:06:59.915Z,9.30
2019-03-24T22:09:43.644Z,9.30
2019-03-24T22:12:27.534Z,9.20
2019-03-24T22:15:10.727Z,9.10
2019-03-24T22:17:55.175Z,9.00
2019-03-24T22:20:48.572Z,8.90
2019-03-24T22:23:27.435Z,8.80
2019-03-24T22:26:09.397Z,8.70
2019-03-24T22:28:56.350Z,8.70
2019-03-24T22:31:38.853Z,8.60
2019-03-24T22:34:28.254Z,8.60
2019-03-24T22:37:15.743Z,8.50
2019-03-24T22:39:56.298Z,8.50
2019-03-24T22:42:38.838Z,8.50
2019-03-24T22:48:22.380Z,8.60
2019-03-24T22:53:49.477Z,8.50
2019-03-24T22:56:38.412Z,8.40
2019-03-24T22:59:21.773Z,8.40
2019-03-24T23:02:04.871Z,8.40
2019-03-24T23:04:48.270Z,8.30
2019-03-24T23:07:33.512Z,8.30
2019-03-24T23:10:21.695Z,8.10
2019-03-24T23:13:08.039Z,8.00
2019-03-24T23:15:51.601Z,7.90
2019-03-24T23:18:35.801Z,7.80
2019-03-24T23:21:20.732Z,7.70
2019-03-24T23:24:14.999Z,7.60
2019-03-24T23:26:39.521Z,7.50
2019-03-24T23:29:32.330Z,7.50
2019-03-24T23:32:14.464Z,7.40
2019-03-24T23:34:46.576Z,7.40
2019-03-24T23:37:37.655Z,7.40
2019-03-24T23:43:08.757Z,7.30
2019-03-24T23:45:54.021Z,7.20
2019-03-24T23:48:36.715Z,7.20
2019-03-24T23:51:19.982Z,7.20
2019-03-24T23:54:02.400Z,7.10
2019-03-24T23:56:34.961Z,7.10
